Aérodrome :
LOGIN :

S'inscrire | Disclaimer

   EN    FR    IT 

 










Légende :    VFR   VFR Marginal   IFR   IFR Intensif   IFR Très Intensif
Visi : 
Plafond : 
>= 8 km
>= 3000ft
5 à 8 km
1000 à 3000 ft
1500m à 5 km
500 à 1000 ft
800 à 1500m
200 à 500 ft
< 800m
< 200 ft
Symboles :   Orages  Brouillard  Fortes neiges  Fortes précipitations  Vent > 20 kt
SIGMETs :   Divers  Orages  Givrage  Turbulence  Onde Orograph.  Cendres Volcan.







- Altitude de l'aérodrome : 313 ft
- Code IATA : LEH
- Voir les cartes d'approche


LFOH - Le Havre Octeville

DERNIER METAR :
  • 251800Z AUTO 35008KT 320V020 CAVOK 07/M01 Q1013 NOSIG

METARs EXPIRÉS :
  • 251730Z AUTO 35009KT 330V030 CAVOK 07/M01 Q1013 NOSIG
  • 251700Z AUTO 35010KT 320V040 CAVOK 08/M01 Q1013 NOSIG
  • 251630Z AUTO 35011KT 320V020 9999 FEW030 08/M00 Q1013 NOSIG
  • 251600Z AUTO 35010KT 320V030 9999 FEW031 SCT240 08/01 Q1013 NOSIG
  • 251530Z AUTO 34011KT 310V020 9999 FEW031 SCT220 BKN240 08/01 Q1013 NOSIG

TAF TAF LFOH
Valide du 25 à 12h jusqu'au 26 à 12h UTC


251100Z 2512/2612 35013KT 9999 SCT040
TEMPO 2523/2612 3000 SHRA BKN020CB
PROB40
TEMPO 2523/2612 01015G25KT TSGR BKN010CB
ATIS : +33 2 35 54 64 93
Pas de NOTAMs connus pour ce terrain.



MET'MAP, la Météo Aéronautique d'un coup d'oeil ! - Copyright ORBIFLY Décembre 2007 - Disclaimer

ORBIFLY MET'MAP TEAM :

Programmation & Développement : Alexandra Zaïnal
Conception & Développement : Baudouin d'Aumeries
Co-Programmation & Développement : Marc-Olivier Méhu
Soutien technique & logistique : Manuel Goepfert

Contact : metmap@orbifly.com




SOURCES & CREDITS :

   NOAA